Time;durP1;ratioP1;P1;durP2;ratioP2;P2;SDS_P1;SDS_P2;PMS_P1;PMS_P2;Temp;Humidity;BMP_temperature;BMP_pressure;BME280_temperature;BME280_humidity;BME280_pressure;Samples;Min_cycle;Max_cycle;Signal;HPM_P1;HPM_P2
2021/12/20 00:01:07;;;;;;;10.00;5.65;;;;;;;4.87;66.73;99475.84;7633595;32;40033;-71
2021/12/20 00:05:24;;;;;;;9.40;5.18;;;;;;;5.36;65.52;99482.63;7633574;32;37999;-71
2021/12/20 00:09:40;;;;;;;9.68;5.55;;;;;;;5.04;66.58;99483.19;7633609;32;37820;-73
2021/12/20 00:13:56;;;;;;;8.23;4.87;;;;;;;5.26;65.35;99483.31;7633260;32;39956;-72
2021/12/20 00:18:12;;;;;;;9.98;5.53;;;;;;;5.20;65.50;99487.78;7633392;32;39844;-73
2021/12/20 00:22:28;;;;;;;6.15;4.55;;;;;;;5.25;65.88;99493.28;7633140;32;37898;-73
2021/12/20 00:31:36;;;;;;;8.55;5.07;;;;;;;5.63;65.32;99537.72;7720577;26;20129;-76
2021/12/20 00:35:52;;;;;;;7.15;4.82;;;;;;;5.84;65.60;99554.28;7659392;32;40119;-76
2021/12/20 00:40:21;;;;;;;7.47;4.65;;;;;;;5.61;66.69;99545.25;7659292;32;37923;-76
2021/12/20 00:44:37;;;;;;;5.03;4.00;;;;;;;5.62;65.90;99519.84;7647400;32;36653;-76
2021/12/20 00:48:53;;;;;;;4.50;3.50;;;;;;;5.90;64.36;99520.00;7659369;32;39835;-76
2021/12/20 00:53:10;;;;;;;5.72;3.72;;;;;;;5.50;65.65;99521.78;7659241;32;39717;-76
2021/12/20 00:57:26;;;;;;;6.50;3.80;;;;;;;5.68;64.75;99518.03;7645755;32;38072;-75
2021/12/20 01:01:43;;;;;;;6.37;4.03;;;;;;;5.46;65.42;99523.34;7659128;32;37755;-75
2021/12/20 01:06:00;;;;;;;4.25;3.70;;;;;;;5.55;65.21;99540.81;7659042;32;39134;-76
2021/12/20 01:10:17;;;;;;;6.65;3.67;;;;;;;5.57;65.11;99533.28;7659015;32;40823;-75
2021/12/20 01:14:36;;;;;;;6.07;4.07;;;;;;;5.98;63.74;99539.38;7658883;32;37767;-76
2021/12/20 01:18:52;;;;;;;6.80;4.00;;;;;;;5.90;63.24;99547.03;7659086;32;37255;-76
2021/12/20 01:23:10;;;;;;;5.47;3.72;;;;;;;5.65;63.63;99542.88;7658938;32;39498;-76
2021/12/20 01:27:26;;;;;;;5.62;3.58;;;;;;;5.56;63.87;99552.47;7658741;32;39900;-76
2021/12/20 01:31:42;;;;;;;7.43;3.90;;;;;;;6.05;62.42;99543.78;7658491;32;38559;-75
2021/12/20 01:35:58;;;;;;;5.57;3.97;;;;;;;5.89;62.60;99540.00;7658799;32;37169;-76
2021/12/20 01:40:15;;;;;;;5.45;4.15;;;;;;;5.39;64.51;99547.03;7658604;32;40117;-76
2021/12/20 01:44:32;;;;;;;6.87;3.87;;;;;;;5.70;63.07;99548.38;7658108;32;40005;-75
2021/12/20 01:48:48;;;;;;;5.87;3.83;;;;;;;5.38;64.22;99557.03;7658551;32;37827;-74
2021/12/20 01:53:04;;;;;;;9.07;4.47;;;;;;;5.11;65.27;99556.00;7658473;32;37317;-75
2021/12/20 01:57:22;;;;;;;5.22;3.87;;;;;;;5.24;65.00;99553.81;7658626;32;40107;-75
2021/12/20 02:01:39;;;;;;;5.37;3.50;;;;;;;5.67;63.67;99564.28;7658508;32;38858;-75
2021/12/20 02:05:58;;;;;;;6.68;4.28;;;;;;;5.69;63.70;99570.25;7658372;32;37552;-76
2021/12/20 02:10:14;;;;;;;5.28;3.47;;;;;;;5.76;63.20;99562.78;7658927;32;37910;-74
2021/12/20 02:14:30;;;;;;;6.78;3.95;;;;;;;5.96;62.67;99571.25;7658207;32;40172;-75
2021/12/20 02:18:48;;;;;;;6.87;3.67;;;;;;;5.68;63.09;99580.25;7644870;32;39966;-75
2021/12/20 02:23:05;;;;;;;6.62;4.07;;;;;;;5.59;64.15;99579.03;7658245;32;37767;-73
2021/12/20 02:27:23;;;;;;;7.47;4.12;;;;;;;5.52;64.10;99573.78;7658147;32;37155;-76
2021/12/20 02:40:34;;;;;;;6.87;4.25;;;;;;;5.57;62.73;99600.06;7644976;32;38006;-75
2021/12/20 02:45:05;;;;;;;7.45;3.65;;;;;;;5.81;61.43;99612.41;7657855;32;37196;-75
2021/12/20 02:49:24;;;;;;;5.32;3.53;;;;;;;5.58;61.57;99613.34;7657860;32;39388;-75
2021/12/20 02:53:40;;;;;;;4.62;3.50;;;;;;;5.50;61.77;99624.53;7657570;32;39952;-75
2021/12/20 02:57:56;;;;;;;5.70;3.60;;;;;;;5.26;62.09;99630.06;7657519;32;37773;-74
2021/12/20 03:02:12;;;;;;;6.05;3.60;;;;;;;5.22;61.67;99628.91;7657461;32;37848;-75
2021/12/20 03:06:52;;;;;;;4.87;3.22;;;;;;;5.31;60.87;99644.75;7657374;32;40354;-76
2021/12/20 03:11:08;;;;;;;5.35;3.20;;;;;;;5.11;60.25;99637.88;7651781;32;216468;-75
2021/12/20 03:15:26;;;;;;;3.72;3.20;;;;;;;4.75;60.62;99639.00;7657055;32;37755;-75
2021/12/20 03:19:42;;;;;;;4.95;3.37;;;;;;;5.03;59.14;99635.53;7657149;32;36340;-75
2021/12/20 03:23:58;;;;;;;4.75;2.87;;;;;;;4.40;60.94;99642.53;7656966;32;39378;-74
2021/12/20 03:28:14;;;;;;;6.70;3.20;;;;;;;4.45;60.14;99639.97;7656674;32;40751;-75
2021/12/20 03:32:30;;;;;;;4.22;2.92;;;;;;;4.61;59.46;99663.56;7643072;32;38158;-76
2021/12/20 03:36:47;;;;;;;3.75;2.80;;;;;;;4.59;58.50;99659.44;7656646;32;37762;-74
2021/12/20 03:41:03;;;;;;;4.47;2.58;;;;;;;4.67;56.92;99664.47;7656517;32;40364;-76
2021/12/20 03:45:19;;;;;;;4.28;2.70;;;;;;;4.57;56.71;99680.44;7656395;32;39708;-75
2021/12/20 03:49:35;;;;;;;5.72;3.17;;;;;;;4.31;56.64;99693.34;7656264;32;38448;-75
2021/12/20 03:53:51;;;;;;;4.15;3.20;;;;;;;4.23;56.27;99693.72;7656163;32;37118;-75
2021/12/20 03:58:07;;;;;;;4.65;2.80;;;;;;;4.18;56.09;99689.00;7656058;32;40118;-75
2021/12/20 04:02:25;;;;;;;3.78;2.67;;;;;;;4.15;55.04;99681.37;7656066;32;40008;-75
2021/12/20 04:06:42;;;;;;;4.43;2.87;;;;;;;3.85;56.27;99689.53;7658645;32;38705;-76
2021/12/20 04:10:58;;;;;;;4.00;2.80;;;;;;;3.99;55.27;99699.06;7659691;32;37098;-77
2021/12/20 04:15:14;;;;;;;3.30;2.70;;;;;;;4.01;55.18;99686.16;7659754;32;40171;-75
2021/12/20 04:19:30;;;;;;;4.20;3.17;;;;;;;4.01;54.49;99688.84;7659671;32;40918;-75
2021/12/20 04:23:46;;;;;;;4.45;3.37;;;;;;;3.87;55.21;99692.81;7659502;32;38048;-76
2021/12/20 04:28:03;;;;;;;2.95;2.67;;;;;;;4.14;54.35;99696.75;7659459;32;37819;-75
2021/12/20 04:32:19;;;;;;;4.80;2.92;;;;;;;3.59;57.06;99702.31;7659548;32;39002;-75
2021/12/20 04:36:35;;;;;;;2.85;2.65;;;;;;;3.53;57.78;99711.31;7659523;32;39648;-75
2021/12/20 04:40:52;;;;;;;4.32;3.17;;;;;;;3.35;57.66;99714.88;7659247;32;38579;-75
2021/12/20 04:45:08;;;;;;;5.62;3.00;;;;;;;3.55;57.60;99717.28;7659446;32;38006;-75
2021/12/20 04:49:24;;;;;;;5.53;2.87;;;;;;;2.99;58.91;99725.41;7659349;32;39429;-75
2021/12/20 04:53:40;;;;;;;7.00;3.58;;;;;;;3.61;57.25;99720.97;7645566;32;40800;-71
2021/12/20 04:57:57;;;;;;;4.78;2.95;;;;;;;3.80;56.73;99719.06;7659148;32;38550;-76
2021/12/20 05:02:14;;;;;;;7.37;3.50;;;;;;;3.71;57.15;99732.84;7659114;32;37144;-75
2021/12/20 05:06:32;;;;;;;3.70;3.10;;;;;;;3.73;56.82;99741.53;7659125;32;39300;-76
2021/12/20 05:10:48;;;;;;;5.32;3.12;;;;;;;3.38;57.13;99752.97;7659089;32;39014;-75
2021/12/20 05:15:05;;;;;;;4.32;3.05;;;;;;;3.46;56.36;99742.91;7658645;32;37976;-75
2021/12/20 05:19:21;;;;;;;7.47;3.55;;;;;;;3.43;55.83;99740.66;7658354;32;38343;-74
2021/12/20 05:23:37;;;;;;;7.47;4.12;;;;;;;3.25;56.64;99758.50;7658903;32;40043;-74
2021/12/20 05:27:53;;;;;;;9.93;4.85;;;;;;;3.02;57.16;99761.84;7658713;32;40495;-77
2021/12/20 05:32:10;;;;;;;9.98;4.32;;;;;;;2.88;56.99;99769.25;7645121;32;37793;-75
2021/12/20 05:36:28;;;;;;;7.57;4.10;;;;;;;3.06;55.97;99770.31;7658807;32;37157;-74
2021/12/20 05:40:44;;;;;;;8.57;4.68;;;;;;;2.63;56.51;99791.59;7658889;32;39297;-74
2021/12/20 05:45:00;;;;;;;8.05;4.15;;;;;;;2.50;57.25;99788.19;7658690;32;39920;-76
2021/12/20 05:49:16;;;;;;;7.60;4.20;;;;;;;2.99;55.86;99779.28;7658562;32;37792;-74
2021/12/20 05:53:32;;;;;;;6.43;3.80;;;;;;;2.80;55.80;99789.19;7645070;32;37092;-75
2021/12/20 05:57:49;;;;;;;7.05;4.10;;;;;;;2.91;55.48;99793.00;7658573;32;40134;-74
2021/12/20 06:02:05;;;;;;;11.00;4.90;;;;;;;2.96;54.87;99795.87;7658449;32;41406;-74
2021/12/20 06:06:21;;;;;;;7.80;4.65;;;;;;;2.76;54.53;99796.06;7658271;32;37613;-74
2021/12/20 06:10:39;;;;;;;9.57;4.53;;;;;;;2.51;55.17;99803.31;7658451;32;37864;-75
2021/12/20 06:14:55;;;;;;;6.62;4.12;;;;;;;2.32;55.40;99805.09;7658441;32;38291;-76
2021/12/20 06:19:11;;;;;;;7.15;4.12;;;;;;;2.58;54.51;99821.03;7658408;32;39709;-78
2021/12/20 06:23:28;;;;;;;6.93;4.00;;;;;;;2.00;55.36;99821.19;7658184;32;37876;-76
2021/12/20 06:27:44;;;;;;;3.53;3.22;;;;;;;2.51;54.48;99814.06;7657783;32;37079;-78
2021/12/20 06:32:00;;;;;;;4.20;3.80;;;;;;;2.11;55.28;99819.72;7658049;32;39422;-77
2021/12/20 06:36:18;;;;;;;5.65;3.70;;;;;;;2.16;54.41;99826.09;7658014;32;40282;-75
2021/12/20 06:40:35;;;;;;;7.55;3.70;;;;;;;2.14;54.48;99830.03;7657933;32;38591;-76
2021/12/20 06:44:51;;;;;;;6.60;3.75;;;;;;;1.99;53.88;99833.00;7657823;32;37623;-75
2021/12/20 06:49:10;;;;;;;5.40;3.80;;;;;;;2.59;53.13;99838.03;7657761;32;39207;-76
2021/12/20 06:53:27;;;;;;;8.82;4.68;;;;;;;2.45;53.43;99842.69;7657710;32;39824;-76
2021/12/20 06:57:43;;;;;;;8.18;4.55;;;;;;;2.16;53.99;99844.91;7657497;32;37940;-77
2021/12/20 07:01:59;;;;;;;9.48;3.90;;;;;;;1.82;55.01;99849.63;7657554;32;37810;-78
2021/12/20 07:06:16;;;;;;;6.50;3.90;;;;;;;1.84;54.91;99852.09;7657396;32;39291;-78
2021/12/20 07:10:32;;;;;;;7.07;4.03;;;;;;;1.84;55.27;99839.47;7657267;32;40719;-76
2021/12/20 07:14:52;;;;;;;5.25;4.18;;;;;;;1.74;55.83;99840.97;7656963;32;38778;-78
2021/12/20 07:19:09;;;;;;;6.75;4.40;;;;;;;2.11;54.66;99842.03;7657106;32;37081;-75
2021/12/20 07:23:25;;;;;;;5.78;4.28;;;;;;;1.86;55.98;99837.41;7657081;32;39146;-74
2021/12/20 07:27:41;;;;;;;6.47;4.20;;;;;;;2.25;55.58;99843.63;7656634;32;39755;-75
2021/12/20 07:31:57;;;;;;;6.25;3.85;;;;;;;2.36;55.83;99843.97;7656494;32;37913;-76
2021/12/20 07:36:15;;;;;;;6.35;3.87;;;;;;;2.33;56.74;99844.41;7656608;32;38148;-81
2021/12/20 07:40:31;;;;;;;7.75;4.00;;;;;;;2.80;62.29;99853.81;7658325;32;38633;-74
2021/12/20 07:44:47;;;;;;;8.45;4.60;;;;;;;2.88;58.26;99852.72;7659969;32;41533;-76
2021/12/20 07:49:09;;;;;;;6.07;3.95;;;;;;;3.19;54.84;99850.97;7659990;32;37836;-78
2021/12/20 07:53:25;;;;;;;5.90;3.90;;;;;;;3.20;54.63;99847.25;7659910;32;37042;-79
2021/12/20 07:57:41;;;;;;;6.57;4.05;;;;;;;3.44;53.53;99828.56;7659533;32;39158;-78
2021/12/20 08:01:57;;;;;;;6.12;4.18;;;;;;;2.85;54.68;99844.25;7659864;32;40778;-80
2021/12/20 08:06:14;;;;;;;5.00;3.70;;;;;;;3.46;53.42;99861.50;7659774;32;37855;-77
2021/12/20 08:10:30;;;;;;;7.15;3.72;;;;;;;3.85;52.52;99857.53;7659747;32;37061;-75
2021/12/20 08:14:46;;;;;;;9.68;4.00;;;;;;;3.76;54.14;99859.72;7659618;32;39394;-78
2021/12/20 08:19:03;;;;;;;9.18;3.90;;;;;;;4.16;51.65;99865.66;7659533;32;40891;-79
2021/12/20 08:23:19;;;;;;;6.75;4.30;;;;;;;4.33;51.00;99870.22;7659616;32;37675;-76
2021/12/20 08:27:35;;;;;;;5.43;3.50;;;;;;;4.10;51.10;99875.50;7659495;32;37723;-75
2021/12/20 08:31:52;;;;;;;8.40;3.95;;;;;;;4.35;51.17;99878.09;7659533;32;39125;-76
2021/12/20 08:36:12;;;;;;;5.85;3.35;;;;;;;4.24;52.91;99878.84;7659437;32;40953;-76
2021/12/20 08:40:28;;;;;;;4.55;3.05;;;;;;;4.88;49.51;99892.66;7659382;32;38637;-77
2021/12/20 08:44:44;;;;;;;5.07;3.35;;;;;;;4.84;49.67;99900.41;7659392;32;37888;-76
2021/12/20 08:49:00;;;;;;;6.90;3.22;;;;;;;4.87;48.89;99907.25;7659403;32;40106;-78
2021/12/20 08:53:16;;;;;;;5.53;2.92;;;;;;;4.90;48.43;99896.00;7659012;32;40845;-77
2021/12/20 08:57:33;;;;;;;6.10;3.42;;;;;;;5.04;48.69;99910.09;7659006;32;37891;-77
2021/12/20 09:01:49;;;;;;;4.32;2.92;;;;;;;4.94;48.56;99913.38;7658878;32;36955;-75
2021/12/20 09:06:05;;;;;;;3.35;2.80;;;;;;;4.79;48.76;99919.19;7659157;32;39239;-78
2021/12/20 09:10:21;;;;;;;4.68;3.15;;;;;;;4.49;48.49;99933.53;7658821;32;40119;-75
2021/12/20 09:14:38;;;;;;;5.60;3.20;;;;;;;4.37;49.71;99948.84;7654294;32;37897;-79
2021/12/20 09:18:54;;;;;;;5.05;3.15;;;;;;;4.93;49.19;99927.09;7653400;32;37600;-78
2021/12/20 09:23:12;;;;;;;5.00;3.20;;;;;;;4.96;49.11;99919.34;7655691;32;39423;-77
2021/12/20 09:27:29;;;;;;;4.72;2.87;;;;;;;5.02;49.22;99931.13;7657684;32;39900;-77
2021/12/20 09:31:45;;;;;;;5.35;3.17;;;;;;;5.01;47.92;99913.28;7656723;32;37934;-77
2021/12/20 09:36:03;;;;;;;6.40;2.85;;;;;;;5.36;47.09;99915.19;7656610;32;37826;-80
2021/12/20 09:41:14;;;;;;;5.35;2.97;;;;;;;5.40;47.60;99916.38;7657518;32;40081;-78
2021/12/20 09:45:03;;;;;;;4.90;2.70;;;;;;;5.61;46.87;99918.47;7650132;32;39968;-77
2021/12/20 09:49:21;;;;;;;3.28;2.50;;;;;;;5.89;46.26;99919.63;7656704;32;37625;-77
2021/12/20 09:53:37;;;;;;;5.80;3.58;;;;;;;5.95;45.05;99934.94;7643400;32;36900;-76
2021/12/20 09:57:56;;;;;;;6.00;3.12;;;;;;;6.00;46.13;99940.47;7657039;32;39330;-75
2021/12/20 10:02:13;;;;;;;4.45;2.90;;;;;;;6.25;45.64;99943.97;7657983;32;38916;-76
2021/12/20 10:06:30;;;;;;;5.00;3.20;;;;;;;6.77;43.32;99939.28;7658377;32;37575;-77
2021/12/20 10:10:49;;;;;;;4.62;3.25;;;;;;;6.45;45.16;99946.25;7658395;32;37793;-74
2021/12/20 10:15:10;;;;;;;7.10;2.85;;;;;;;6.19;44.52;99940.31;7658303;32;40222;-74
2021/12/20 10:19:32;;;;;;;4.07;2.80;;;;;;;6.29;46.55;99940.53;7657683;32;38996;-75
2021/12/20 10:23:49;;;;;;;4.62;2.67;;;;;;;6.60;44.37;99933.00;7658039;32;37896;-77
2021/12/20 10:28:15;;;;;;;6.68;3.10;;;;;;;5.79;45.80;99931.03;7657994;32;38479;-75
2021/12/20 10:32:42;;;;;;;6.47;2.58;;;;;;;6.20;44.56;99923.81;7658079;32;39135;-75
2021/12/20 10:37:00;;;;;;;6.10;2.65;;;;;;;6.24;45.42;99918.75;7658006;32;40011;-74
2021/12/20 10:41:33;;;;;;;5.25;2.80;;;;;;;6.83;44.83;99913.12;7644313;32;38008;-74
2021/12/20 10:45:53;;;;;;;4.43;2.65;;;;;;;7.32;44.15;99917.97;7657879;32;37060;-75
2021/12/20 10:50:40;;;;;;;3.05;2.53;;;;;;;6.56;44.09;99907.47;7657660;32;39640;-76
2021/12/20 10:54:56;;;;;;;5.35;2.80;;;;;;;7.18;43.36;99908.53;7657725;32;40088;-75
2021/12/20 10:59:13;;;;;;;4.65;2.90;;;;;;;7.25;43.25;99915.44;7657496;32;37873;-70
2021/12/20 11:03:35;;;;;;;5.57;2.60;;;;;;;7.38;43.38;99903.44;7657365;32;37775;-69
2021/12/20 11:12:32;;;;;;;6.50;2.60;;;;;;;7.52;43.94;99903.91;7635541;32;39856;-76
2021/12/20 11:16:54;;;;;;;5.85;2.67;;;;;;;8.24;41.84;99889.41;7659497;32;40048;-78
2021/12/20 11:21:14;;;;;;;4.43;2.15;;;;;;;8.26;41.83;99879.09;7660393;32;37158;-77
2021/12/20 11:25:31;;;;;;;4.12;2.40;;;;;;;8.95;40.12;99883.06;7660339;32;40019;-75
2021/12/20 11:29:51;;;;;;;5.25;2.60;;;;;;;7.05;42.42;99899.63;7660101;32;39790;-72
2021/12/20 11:34:08;;;;;;;3.40;2.50;;;;;;;7.53;41.52;99890.09;7660181;32;38451;-74
2021/12/20 11:38:24;;;;;;;3.20;2.40;;;;;;;7.74;42.08;99895.00;7660150;32;38649;-75
2021/12/20 11:42:40;;;;;;;5.28;2.40;;;;;;;7.90;41.36;99897.66;7660204;32;39439;-75
2021/12/20 11:47:29;;;;;;;5.28;2.78;;;;;;;7.61;42.09;99888.03;7660049;32;39781;-75
2021/12/20 11:52:06;;;;;;;4.97;2.30;;;;;;;6.78;43.94;99894.06;7659855;32;37864;-76
2021/12/20 11:56:43;;;;;;;4.03;2.12;;;;;;;7.01;41.91;99884.94;7659921;32;38085;-74
2021/12/20 12:01:05;;;;;;;3.33;1.80;;;;;;;8.12;40.43;99896.84;7646543;32;39462;-73
2021/12/20 12:05:37;;;;;;;2.28;1.77;;;;;;;7.76;40.17;99892.84;7659901;32;39813;-75
2021/12/20 12:10:01;;;;;;;6.68;1.80;;;;;;;9.11;38.48;99897.62;7658894;32;37790;-77
2021/12/20 12:14:32;;;;;;;1.60;1.50;;;;;;;8.49;36.38;99896.22;7658052;32;37014;-78
2021/12/20 12:18:51;;;;;;;2.85;2.03;;;;;;;8.96;36.01;99890.12;7648050;32;39278;-78
2021/12/20 12:23:15;;;;;;;7.07;2.22;;;;;;;9.17;36.29;99899.28;7659659;32;40834;-76
2021/12/20 12:27:33;;;;;;;1.92;1.70;;;;;;;8.53;36.44;99902.78;7659125;32;37804;-76
2021/12/20 12:31:57;;;;;;;2.28;1.70;;;;;;;8.92;38.39;99910.78;7659137;32;38199;-75
2021/12/20 12:36:31;;;;;;;3.60;1.90;;;;;;;8.92;36.23;99901.81;7659389;32;40203;-78
2021/12/20 12:40:51;;;;;;;1.98;1.80;;;;;;;9.20;35.68;99895.22;7659180;32;39801;-74
2021/12/20 12:45:07;;;;;;;3.30;2.00;;;;;;;8.22;35.92;99907.81;7659270;32;38981;-77
2021/12/20 12:49:24;;;;;;;2.80;1.62;;;;;;;7.30;37.36;99912.00;7659263;32;36848;-76
2021/12/20 12:53:48;;;;;;;1.80;1.70;;;;;;;7.29;38.77;99919.28;7657512;32;40203;-74
2021/12/20 12:58:20;;;;;;;2.65;2.10;;;;;;;7.33;38.44;99925.87;7657508;32;41062;-74
2021/12/20 13:02:39;;;;;;;5.05;2.47;;;;;;;6.76;40.31;99932.22;7659159;32;37842;-74
2021/12/20 13:06:56;;;;;;;7.22;2.22;;;;;;;6.79;40.35;99939.03;7658929;32;37725;-75
2021/12/20 13:11:23;;;;;;;2.20;2.00;;;;;;;6.32;41.38;99955.47;7657685;32;39056;-75
2021/12/20 13:15:46;;;;;;;2.47;2.15;;;;;;;5.74;43.08;99949.88;7658445;32;40702;-77
2021/12/20 13:20:24;;;;;;;2.90;2.35;;;;;;;5.00;44.36;99962.94;7658475;32;37746;-76
2021/12/20 13:24:40;;;;;;;2.83;2.60;;;;;;;5.72;43.55;99970.09;7658891;32;38034;-77
2021/12/20 13:28:57;;;;;;;2.53;2.15;;;;;;;6.50;41.56;99971.56;7658909;32;40044;-77
2021/12/20 13:33:16;;;;;;;2.45;2.25;;;;;;;6.78;40.65;99980.75;7658952;32;39995;-76
2021/12/20 13:37:35;;;;;;;3.08;2.35;;;;;;;6.06;41.54;100002.84;7657885;32;39072;-75
2021/12/20 13:41:53;;;;;;;3.87;2.60;;;;;;;5.91;43.29;100004.09;7658852;32;37631;-75
2021/12/20 13:46:23;;;;;;;3.97;2.40;;;;;;;5.63;43.93;100012.91;7658711;32;39302;-75
2021/12/20 13:50:39;;;;;;;6.75;2.50;;;;;;;5.93;43.24;100014.69;7658733;32;39717;-76
2021/12/20 13:54:55;;;;;;;2.60;2.40;;;;;;;5.59;44.29;100017.97;7658522;32;38437;-76
2021/12/20 13:59:12;;;;;;;4.22;2.70;;;;;;;5.59;44.53;100017.16;7658550;32;37681;-76
2021/12/20 14:03:28;;;;;;;4.50;2.72;;;;;;;5.53;45.01;100024.31;7645453;32;38131;-77
2021/12/20 14:07:51;;;;;;;3.78;2.65;;;;;;;6.05;43.42;100009.31;7658433;32;40068;-75
2021/12/20 14:12:13;;;;;;;3.22;2.83;;;;;;;6.88;41.03;100010.78;7658536;32;37678;-75
2021/12/20 14:16:49;;;;;;;6.87;3.20;;;;;;;6.28;43.79;100013.84;7658401;32;36887;-75
2021/12/20 14:21:10;;;;;;;4.50;2.50;;;;;;;5.80;44.01;100008.47;7658104;32;39270;-75
2021/12/20 14:25:37;;;;;;;4.20;3.00;;;;;;;6.01;43.87;100004.34;7658195;32;40802;-74
2021/12/20 14:29:53;;;;;;;4.80;2.75;;;;;;;5.87;44.45;100011.06;7658035;32;38598;-75
2021/12/20 14:34:11;;;;;;;5.60;3.60;;;;;;;5.62;45.05;100005.84;7658097;32;36873;-75
2021/12/20 14:38:49;;;;;;;4.18;3.20;;;;;;;5.58;45.31;100005.50;7658073;32;40468;-75
2021/12/20 14:43:11;;;;;;;6.15;3.65;;;;;;;5.19;46.72;100018.59;7643480;32;39649;-75
2021/12/20 14:47:38;;;;;;;6.50;4.00;;;;;;;4.82;47.86;100018.69;7657745;32;37996;-75
2021/12/20 14:51:54;;;;;;;7.53;3.50;;;;;;;4.62;48.42;100023.53;7657761;32;38141;-75
2021/12/20 14:56:11;;;;;;;9.77;4.15;;;;;;;4.41;48.83;100011.31;7657551;32;39281;-75
2021/12/20 15:00:27;;;;;;;6.72;3.55;;;;;;;4.51;48.57;100020.53;7657593;32;39722;-75
2021/12/20 15:04:44;;;;;;;3.53;3.08;;;;;;;4.58;48.25;100027.72;7657445;32;38053;-77
2021/12/20 15:09:00;;;;;;;4.05;2.95;;;;;;;4.50;48.69;100032.41;7657414;32;37959;-76
2021/12/20 15:13:16;;;;;;;3.40;2.80;;;;;;;4.61;48.14;100032.69;7657204;32;39873;-74
2021/12/20 15:17:33;;;;;;;5.47;3.67;;;;;;;4.29;48.79;100040.94;7657114;32;39854;-75
2021/12/20 15:21:50;;;;;;;7.75;3.85;;;;;;;4.27;48.97;100048.44;7656660;32;37871;-76
2021/12/20 15:26:07;;;;;;;7.50;4.00;;;;;;;4.20;48.91;100053.06;7656870;32;36993;-78
2021/12/20 15:30:23;;;;;;;8.25;4.30;;;;;;;4.36;48.94;100060.56;7656453;32;39427;-76
2021/12/20 15:34:39;;;;;;;7.85;4.18;;;;;;;4.57;48.72;100058.47;7656497;32;39971;-77
2021/12/20 15:38:56;;;;;;;5.95;3.83;;;;;;;3.65;51.74;100064.56;7656543;32;38493;-77
2021/12/20 15:43:14;;;;;;;6.47;3.60;;;;;;;4.09;51.09;100076.22;7656522;32;37851;-75
2021/12/20 15:47:30;;;;;;;13.30;3.80;;;;;;;3.72;52.36;100071.53;7656426;32;39464;-78
2021/12/20 15:51:47;;;;;;;7.18;4.00;;;;;;;3.11;54.46;100073.00;7656328;32;39934;-76
2021/12/20 15:56:05;;;;;;;5.47;4.12;;;;;;;3.74;52.69;100082.97;7656090;32;37900;-75
2021/12/20 16:00:21;;;;;;;6.97;3.47;;;;;;;3.17;54.34;100076.69;7656636;32;37791;-77
2021/12/20 16:04:38;;;;;;;6.22;3.87;;;;;;;3.53;52.99;100086.00;7659748;32;40421;-81
2021/12/20 16:08:54;;;;;;;12.43;6.57;;;;;;;3.08;54.23;100094.97;7659885;32;39873;-77
2021/12/20 16:13:12;;;;;;;8.18;5.12;;;;;;;2.71;54.89;100094.75;7659550;32;37851;-81
2021/12/20 16:17:28;;;;;;;7.97;5.12;;;;;;;2.45;55.87;100106.41;7659721;32;37988;-77
2021/12/20 16:21:45;;;;;;;9.27;5.07;;;;;;;3.35;53.64;100097.53;7659631;32;39431;-76
2021/12/20 16:26:02;;;;;;;7.25;4.28;;;;;;;2.42;55.53;100098.75;7659445;32;39778;-76
2021/12/20 16:30:22;;;;;;;8.52;5.00;;;;;;;3.41;52.96;100098.53;7659183;32;38610;-79
2021/12/20 16:34:41;;;;;;;8.73;5.03;;;;;;;3.54;51.93;100103.84;7659135;32;37051;-78
2021/12/20 16:38:58;;;;;;;8.70;4.50;;;;;;;3.33;51.83;100107.72;7659254;32;38231;-73
2021/12/20 16:43:15;;;;;;;8.48;4.35;;;;;;;2.76;52.76;100108.37;7659016;32;39951;-78
2021/12/20 16:47:38;;;;;;;6.40;4.03;;;;;;;3.33;51.62;100113.09;7659029;32;37291;-76
2021/12/20 16:51:54;;;;;;;5.00;4.28;;;;;;;3.21;51.81;100118.34;7659015;32;37125;-78
2021/12/20 16:56:10;;;;;;;7.50;4.62;;;;;;;3.33;51.39;100116.62;7658733;32;39399;-76
2021/12/20 17:00:27;;;;;;;6.25;3.90;;;;;;;3.53;50.92;100107.56;7658427;32;40881;-76
2021/12/20 17:05:07;;;;;;;6.00;4.03;;;;;;;3.47;51.00;100100.38;7658590;32;37934;-80
2021/12/20 17:09:24;;;;;;;5.35;3.90;;;;;;;3.60;50.44;100111.03;7646315;32;36823;-80
2021/12/20 17:13:40;;;;;;;4.85;3.55;;;;;;;3.60;50.42;100110.22;7645199;32;39439;-80
2021/12/20 17:17:57;;;;;;;6.57;4.07;;;;;;;3.47;51.30;100113.84;7658497;32;39891;-77
2021/12/20 17:22:13;;;;;;;10.15;5.05;;;;;;;2.74;53.79;100117.69;7658652;32;37802;-80
2021/12/20 17:26:29;;;;;;;9.35;4.93;;;;;;;2.94;53.69;100115.75;7658735;32;37840;-77
2021/12/20 17:30:45;;;;;;;6.80;4.60;;;;;;;3.23;53.08;100118.94;7630849;32;39113;-77
2021/12/20 17:35:01;;;;;;;7.35;5.15;;;;;;;3.16;53.49;100112.78;7631015;32;40887;-81
2021/12/20 17:39:17;;;;;;;7.60;5.03;;;;;;;2.63;55.20;100119.19;7630749;32;38629;-77
2021/12/20 17:43:34;;;;;;;10.00;4.95;;;;;;;3.29;53.21;100126.16;7632275;32;37241;-77
2021/12/20 17:47:50;;;;;;;8.60;4.93;;;;;;;3.04;53.63;100131.47;7632086;32;39549;-79
2021/12/20 17:52:11;;;;;;;7.85;4.62;;;;;;;3.02;53.99;100125.47;7632092;32;40793;-78
2021/12/20 17:56:28;;;;;;;6.78;4.68;;;;;;;2.44;55.75;100126.28;7631805;32;38607;-76
2021/12/20 18:00:45;;;;;;;7.60;5.00;;;;;;;2.78;55.46;100122.47;7632071;32;37899;-75
2021/12/20 18:05:02;;;;;;;6.07;4.45;;;;;;;3.06;54.58;100124.00;7632136;32;39109;-75
2021/12/20 18:09:18;;;;;;;6.90;4.78;;;;;;;2.69;56.02;100133.66;7632040;32;40018;-75
2021/12/20 18:13:34;;;;;;;6.40;4.62;;;;;;;2.66;56.18;100128.69;7631640;32;38079;-74
2021/12/20 18:17:50;;;;;;;6.43;4.65;;;;;;;2.37;57.01;100144.31;7631730;32;37129;-77
2021/12/20 18:22:08;;;;;;;7.45;4.80;;;;;;;2.94;55.50;100150.78;7630794;32;39404;-76
2021/12/20 18:26:26;;;;;;;10.13;6.57;;;;;;;2.95;55.48;100154.28;7631401;32;40716;-75
2021/12/20 18:30:42;;;;;;;10.15;5.62;;;;;;;2.80;55.63;100151.88;7646950;32;37938;-75
2021/12/20 18:34:58;;;;;;;8.10;5.40;;;;;;;2.72;56.07;100157.47;7657413;32;37146;-73
2021/12/20 18:39:14;;;;;;;7.87;5.10;;;;;;;2.76;55.83;100161.38;7657873;32;39381;-74
2021/12/20 18:43:31;;;;;;;7.97;5.12;;;;;;;2.70;56.25;100156.88;7657238;32;39963;-73
2021/12/20 18:47:47;;;;;;;7.25;4.50;;;;;;;2.56;56.69;100153.38;7657141;32;38517;-77
2021/12/20 18:52:05;;;;;;;8.50;4.78;;;;;;;2.70;56.18;100156.88;7657620;32;38024;-74
2021/12/20 18:56:21;;;;;;;5.97;4.60;;;;;;;2.57;56.51;100158.56;7657489;32;39830;-76
2021/12/20 19:00:40;;;;;;;12.52;5.75;;;;;;;2.39;57.63;100161.88;7656948;32;39961;-77
2021/12/20 19:04:56;;;;;;;16.50;6.97;;;;;;;2.39;57.71;100166.44;7642285;32;37804;-76
2021/12/20 19:09:14;;;;;;;11.55;6.65;;;;;;;2.54;57.03;100169.72;7655153;32;37942;-76
2021/12/20 19:13:34;;;;;;;13.98;7.35;;;;;;;2.32;57.85;100173.69;7641842;32;37487;-75
2021/12/20 19:17:50;;;;;;;11.85;6.68;;;;;;;2.38;57.92;100197.91;7655569;32;40844;-77
2021/12/20 19:22:07;;;;;;;9.75;6.18;;;;;;;2.62;57.00;100187.50;7656914;32;38812;-75
2021/12/20 19:26:24;;;;;;;8.82;5.78;;;;;;;2.71;56.97;100198.88;7642222;32;36963;-76
2021/12/20 19:30:46;;;;;;;7.97;5.03;;;;;;;2.77;56.67;100204.25;7641569;32;38924;-78
2021/12/20 19:35:05;;;;;;;7.78;5.20;;;;;;;2.91;56.11;100207.75;7654670;32;40075;-76
2021/12/20 19:39:23;;;;;;;9.05;4.75;;;;;;;3.11;55.73;100207.69;7657729;32;37856;-75
2021/12/20 19:43:39;;;;;;;10.52;5.03;;;;;;;3.24;55.52;100206.81;7631915;32;37731;-73
2021/12/20 19:47:55;;;;;;;8.02;4.60;;;;;;;3.04;55.93;100217.69;7657636;32;39239;-76
2021/12/20 19:52:11;;;;;;;6.87;4.82;;;;;;;3.02;56.07;100203.59;7657633;32;39943;-76
2021/12/20 19:56:27;;;;;;;8.27;5.65;;;;;;;3.03;56.33;100207.94;7657399;32;37564;-76
2021/12/20 20:00:44;;;;;;;8.32;5.32;;;;;;;2.86;56.93;100210.25;7657692;32;37019;-76
2021/12/20 20:05:00;;;;;;;9.38;6.60;;;;;;;2.88;56.74;100207.34;7657685;32;38910;-76
2021/12/20 20:09:18;;;;;;;9.57;5.68;;;;;;;2.79;57.31;100206.75;7655624;32;40817;-76
2021/12/20 20:13:40;;;;;;;9.88;5.05;;;;;;;2.88;57.24;100216.28;7643775;32;37870;-76
2021/12/20 20:17:59;;;;;;;9.13;6.05;;;;;;;2.99;56.90;100215.59;7655570;32;37810;-76
2021/12/20 20:22:16;;;;;;;9.88;5.68;;;;;;;3.06;56.71;100210.22;7655460;32;39934;-76
2021/12/20 20:26:32;;;;;;;11.98;6.35;;;;;;;3.12;56.21;100193.22;7657114;32;40887;-75
2021/12/20 20:30:49;;;;;;;13.13;6.62;;;;;;;3.17;55.92;100197.94;7656811;32;38557;-77
2021/12/20 20:35:07;;;;;;;11.63;6.30;;;;;;;2.92;56.59;100214.00;7657144;32;37361;-77
2021/12/20 20:39:23;;;;;;;9.32;6.35;;;;;;;2.80;56.90;100211.94;7656998;32;40522;-78
2021/12/20 20:43:41;;;;;;;11.27;6.05;;;;;;;2.59;57.34;100210.31;7657108;32;39969;-75